createdAt,value
2019-02-07T00:00:59.390Z,-0.89
2019-02-07T00:01:59.474Z,-0.95
2019-02-07T00:02:59.289Z,-0.75
2019-02-07T00:03:59.298Z,-0.68
2019-02-07T00:04:59.212Z,-0.66
2019-02-07T00:05:59.223Z,-0.60
2019-02-07T00:06:59.194Z,-0.65
2019-02-07T00:07:59.206Z,-0.68
2019-02-07T00:08:59.153Z,-0.70
2019-02-07T00:09:59.140Z,-0.80
2019-02-07T00:10:59.155Z,-0.95
2019-02-07T00:11:59.129Z,-1.00
2019-02-07T00:12:59.118Z,-1.09
2019-02-07T00:13:59.095Z,-0.97
2019-02-07T00:14:59.080Z,-0.87
2019-02-07T00:15:59.057Z,-0.87
2019-02-07T00:16:59.049Z,-0.95
2019-02-07T00:17:59.058Z,-0.94
2019-02-07T00:18:59.028Z,-0.91
2019-02-07T00:19:58.992Z,-0.77
2019-02-07T00:20:58.991Z,-0.83
2019-02-07T00:21:58.995Z,-0.68
2019-02-07T00:22:58.955Z,-0.66
2019-02-07T00:23:58.941Z,-0.75
2019-02-07T00:24:58.966Z,-0.94
2019-02-07T00:25:58.948Z,-0.91
2019-02-07T00:26:58.918Z,-0.92
2019-02-07T00:27:58.914Z,-0.86
2019-02-07T00:28:58.892Z,-0.83
2019-02-07T00:29:58.854Z,-0.95
2019-02-07T00:30:58.854Z,-0.86
2019-02-07T00:31:58.845Z,-0.81
2019-02-07T00:32:58.853Z,-0.81
2019-02-07T00:33:58.805Z,-0.91
2019-02-07T00:34:58.808Z,-0.97
2019-02-07T00:35:58.801Z,-0.87
2019-02-07T00:36:58.790Z,-0.97
2019-02-07T00:37:58.759Z,-0.95
2019-02-07T00:38:58.747Z,-0.81
2019-02-07T00:39:58.721Z,-0.94
2019-02-07T00:40:58.722Z,-0.83
2019-02-07T00:41:58.710Z,-0.94
2019-02-07T00:42:58.689Z,-0.92
2019-02-07T00:43:58.673Z,-0.83
2019-02-07T00:44:58.657Z,-0.87
2019-02-07T00:45:58.663Z,-0.95
2019-02-07T00:46:58.639Z,-0.83
2019-02-07T00:47:58.652Z,-0.87
2019-02-07T00:48:58.582Z,-0.92
2019-02-07T00:49:58.597Z,-0.84
2019-02-07T00:50:58.579Z,-0.97
2019-02-07T00:51:58.537Z,-1.06
2019-02-07T00:52:58.525Z,-1.12
2019-02-07T00:53:58.515Z,-1.09
2019-02-07T00:54:58.510Z,-1.05
2019-02-07T00:55:58.510Z,-0.99
2019-02-07T00:56:58.469Z,-0.95
2019-02-07T00:58:07.152Z,-0.92
2019-02-07T01:00:02.943Z,-0.92
2019-02-07T01:01:02.942Z,-0.84
2019-02-07T01:02:02.892Z,-0.81
2019-02-07T01:03:02.886Z,-0.77
2019-02-07T01:04:02.894Z,-0.66
2019-02-07T01:05:02.842Z,-0.70
2019-02-07T01:06:02.834Z,-0.66
2019-02-07T01:07:02.850Z,-0.63
2019-02-07T01:08:02.824Z,-0.70
2019-02-07T01:09:02.807Z,-0.73
2019-02-07T01:10:02.803Z,-0.80
2019-02-07T01:11:02.884Z,-0.91
2019-02-07T01:12:02.758Z,-0.89
2019-02-07T01:13:02.874Z,-0.84
2019-02-07T01:14:02.752Z,-0.87
2019-02-07T01:15:02.753Z,-0.84
2019-02-07T01:16:02.728Z,-0.69
2019-02-07T01:17:02.677Z,-0.60
2019-02-07T01:18:02.658Z,-0.60
2019-02-07T01:19:02.649Z,-0.50
2019-02-07T01:20:02.657Z,-0.42
2019-02-07T01:21:02.615Z,-0.39
2019-02-07T01:22:02.632Z,-0.42
2019-02-07T01:23:02.593Z,-0.33
2019-02-07T01:24:02.600Z,-0.44
2019-02-07T01:25:02.633Z,-0.37
2019-02-07T01:26:02.561Z,-0.30
2019-02-07T01:27:02.569Z,-0.39
2019-02-07T01:28:02.551Z,-0.41
2019-02-07T01:29:02.517Z,-0.47
2019-02-07T01:30:02.493Z,-0.51
2019-02-07T01:31:02.497Z,-0.48
2019-02-07T01:32:02.464Z,-0.52
2019-02-07T01:33:02.448Z,-0.54
2019-02-07T01:34:02.463Z,-0.54
2019-02-07T01:35:02.419Z,-0.42
2019-02-07T01:36:02.408Z,-0.54
2019-02-07T01:37:02.447Z,-0.66
2019-02-07T01:38:02.380Z,-0.59
2019-02-07T01:39:02.357Z,-0.55
2019-02-07T01:40:02.350Z,-0.57
2019-02-07T01:41:02.397Z,-0.72
2019-02-07T01:42:02.402Z,-0.62
2019-02-07T01:43:02.329Z,-0.57
2019-02-07T01:44:02.296Z,-0.45
2019-02-07T01:45:12.587Z,-0.52
2019-02-07T01:46:02.272Z,-0.55
2019-02-07T01:47:02.279Z,-0.54
2019-02-07T01:48:02.255Z,-0.51
2019-02-07T01:49:02.356Z,-0.47
2019-02-07T01:50:02.257Z,-0.39
2019-02-07T01:51:02.201Z,-0.44
2019-02-07T01:52:02.189Z,-0.37
2019-02-07T01:53:02.190Z,-0.36
2019-02-07T01:54:02.176Z,-0.31
2019-02-07T01:55:02.147Z,-0.24
2019-02-07T01:56:02.151Z,-0.19
2019-02-07T01:57:02.144Z,-0.11
2019-02-07T01:58:02.144Z,-0.22
2019-02-07T01:59:02.106Z,-0.08
2019-02-07T02:00:02.106Z,-0.06
2019-02-07T02:01:02.127Z,-0.05
2019-02-07T02:02:02.152Z,-0.04
2019-02-07T02:03:02.083Z,-0.01
2019-02-07T02:04:02.047Z,0.00
2019-02-07T02:05:02.022Z,0.03
2019-02-07T02:06:01.997Z,0.03
2019-02-07T02:07:01.978Z,0.06
2019-02-07T02:08:01.983Z,0.06
2019-02-07T02:09:01.973Z,0.09
2019-02-07T02:10:01.949Z,0.15
2019-02-07T02:11:01.908Z,0.00
2019-02-07T02:12:01.914Z,0.09
2019-02-07T02:13:01.905Z,0.13
2019-02-07T02:14:01.902Z,0.09
2019-02-07T02:15:01.927Z,0.13
2019-02-07T02:16:02.002Z,0.13
2019-02-07T02:17:01.825Z,0.10
2019-02-07T02:18:01.929Z,0.12
2019-02-07T02:19:01.833Z,0.10
2019-02-07T02:20:01.798Z,0.23
2019-02-07T02:21:01.854Z,0.16
2019-02-07T02:22:01.798Z,0.12
2019-02-07T02:23:01.775Z,0.18
2019-02-07T02:24:01.734Z,0.16
2019-02-07T02:25:01.733Z,0.18
2019-02-07T02:26:01.728Z,0.16
2019-02-07T02:27:01.695Z,0.12
2019-02-07T02:28:01.762Z,0.15
2019-02-07T02:29:01.655Z,0.23
2019-02-07T02:30:01.705Z,0.21
2019-02-07T02:31:01.630Z,0.24
2019-02-07T02:32:01.615Z,0.27
2019-02-07T02:33:01.637Z,0.41
2019-02-07T02:34:01.612Z,0.39
2019-02-07T02:35:01.599Z,0.34
2019-02-07T02:36:01.576Z,0.60
2019-02-07T02:37:01.565Z,0.72
2019-02-07T02:38:01.533Z,0.78
2019-02-07T02:39:01.534Z,0.70
2019-02-07T02:40:01.519Z,0.78
2019-02-07T02:41:01.502Z,0.70
2019-02-07T02:42:01.712Z,0.57
2019-02-07T02:43:01.533Z,0.52
2019-02-07T02:44:01.529Z,0.65
2019-02-07T02:45:01.462Z,0.72
2019-02-07T02:46:01.534Z,0.75
2019-02-07T02:47:01.422Z,0.68
2019-02-07T02:48:01.397Z,0.71
2019-02-07T02:49:01.388Z,0.80
2019-02-07T02:50:01.395Z,0.82
2019-02-07T02:51:01.379Z,0.82
2019-02-07T02:52:01.355Z,0.82
2019-02-07T02:53:01.362Z,0.71
2019-02-07T02:54:01.308Z,0.83
2019-02-07T02:55:01.320Z,0.79
2019-02-07T02:56:01.296Z,0.78
2019-02-07T02:57:01.299Z,0.76
2019-02-07T03:13:38.371Z,0.88
2019-02-07T03:14:38.306Z,0.80
2019-02-07T03:15:49.125Z,0.83
2019-02-07T03:16:38.229Z,0.85
2019-02-07T03:17:38.202Z,0.86
2019-02-07T03:18:38.203Z,0.82
2019-02-07T03:19:38.188Z,0.82
2019-02-07T03:20:38.186Z,0.79
2019-02-07T03:21:38.134Z,0.86
2019-02-07T03:22:38.125Z,0.80
2019-02-07T03:23:38.124Z,0.78
2019-02-07T03:24:38.124Z,0.82
2019-02-07T03:25:38.063Z,0.78
2019-02-07T03:26:38.052Z,0.79
2019-02-07T03:27:38.043Z,0.83
2019-02-07T03:28:38.027Z,0.83
2019-02-07T03:29:38.011Z,0.88
2019-02-07T03:30:38.048Z,0.79
2019-02-07T03:31:37.983Z,0.86
2019-02-07T03:32:38.016Z,0.80
2019-02-07T03:33:37.960Z,0.85
2019-02-07T03:34:37.949Z,0.89
2019-02-07T03:35:37.918Z,0.83
2019-02-07T03:36:37.931Z,0.88
2019-02-07T03:37:37.906Z,0.85
2019-02-07T03:38:37.891Z,0.78
2019-02-07T03:39:37.871Z,0.82
2019-02-07T03:40:37.847Z,0.83
2019-02-07T03:41:37.851Z,0.88
2019-02-07T03:42:37.955Z,0.92
2019-02-07T03:43:37.867Z,0.94
2019-02-07T03:44:37.847Z,0.90
2019-02-07T03:45:37.784Z,0.90
2019-02-07T03:46:37.770Z,0.96
2019-02-07T03:47:37.769Z,0.86
2019-02-07T03:48:37.763Z,0.85
2019-02-07T03:49:37.734Z,0.89
2019-02-07T03:50:37.725Z,0.79
2019-02-07T03:51:37.731Z,0.92
2019-02-07T03:52:37.713Z,0.89
2019-02-07T03:53:37.719Z,0.90
2019-02-07T03:54:37.670Z,0.92
2019-02-07T03:55:37.681Z,0.89
2019-02-07T03:56:37.636Z,0.88
2019-02-07T03:57:37.640Z,0.94
2019-02-07T03:58:37.612Z,0.98
2019-02-07T03:59:37.596Z,0.92
2019-02-07T04:00:37.587Z,0.86
2019-02-07T04:01:37.610Z,0.89
2019-02-07T04:02:40.499Z,0.94
2019-02-07T04:03:37.575Z,0.94
2019-02-07T04:04:37.559Z,0.88
2019-02-07T04:05:37.577Z,0.98
2019-02-07T04:06:37.503Z,1.00
2019-02-07T04:07:37.505Z,1.12
2019-02-07T04:08:37.486Z,1.00
2019-02-07T04:09:37.494Z,1.04
2019-02-07T04:10:37.503Z,0.98
2019-02-07T04:11:37.436Z,0.94
2019-02-07T04:12:37.443Z,0.98
2019-02-07T04:13:37.442Z,0.92
2019-02-07T04:14:37.514Z,0.92
2019-02-07T04:15:37.381Z,0.92
2019-02-07T04:16:37.365Z,0.96
2019-02-07T04:17:37.357Z,0.89
2019-02-07T04:18:37.367Z,0.96
2019-02-07T04:19:37.460Z,0.94
2019-02-07T04:20:37.329Z,1.00
2019-02-07T04:21:37.338Z,0.98
2019-02-07T04:22:37.300Z,0.94
2019-02-07T04:23:37.319Z,1.04
2019-02-07T04:24:37.309Z,0.92
2019-02-07T04:25:37.275Z,0.97
2019-02-07T04:26:37.277Z,0.97
2019-02-07T04:27:37.229Z,1.07
2019-02-07T04:28:37.230Z,1.06
2019-02-07T04:29:37.201Z,1.04
2019-02-07T04:30:37.185Z,1.03
2019-02-07T04:31:37.170Z,1.01
2019-02-07T04:32:37.192Z,0.98
2019-02-07T04:33:37.168Z,1.07
2019-02-07T04:34:37.129Z,0.97
2019-02-07T04:35:37.117Z,1.08
2019-02-07T04:36:37.113Z,1.15
2019-02-07T04:37:37.094Z,1.16
2019-02-07T04:38:37.092Z,1.04
2019-02-07T04:39:37.079Z,1.12
2019-02-07T04:40:37.070Z,1.10
2019-02-07T04:41:37.038Z,1.04
2019-02-07T04:42:37.041Z,1.04
2019-02-07T04:43:37.030Z,1.12
2019-02-07T04:44:37.022Z,1.07
2019-02-07T04:45:36.977Z,1.01
2019-02-07T04:46:36.969Z,1.06
2019-02-07T04:47:36.977Z,1.07
2019-02-07T04:48:36.969Z,1.08
2019-02-07T04:49:37.008Z,0.98
2019-02-07T04:50:36.915Z,1.08
2019-02-07T04:51:36.911Z,1.14
2019-02-07T04:52:36.903Z,1.03
2019-02-07T04:53:36.903Z,1.07
2019-02-07T04:54:36.870Z,1.12
2019-02-07T04:55:36.901Z,1.19
2019-02-07T04:56:36.834Z,1.21
2019-02-07T04:57:36.843Z,1.14
2019-02-07T04:58:36.826Z,1.18
2019-02-07T04:59:36.855Z,1.22
2019-02-07T05:00:36.802Z,1.19
2019-02-07T05:01:36.770Z,1.14
2019-02-07T05:02:36.758Z,1.10
2019-02-07T05:03:36.779Z,1.04
2019-02-07T05:04:36.763Z,1.10
2019-02-07T05:05:36.717Z,1.03
2019-02-07T05:06:36.703Z,1.12
2019-02-07T05:07:36.689Z,1.07
2019-02-07T05:08:36.693Z,1.08
2019-02-07T05:09:36.697Z,1.16
2019-02-07T05:10:36.709Z,1.19
2019-02-07T05:11:36.663Z,1.16
2019-02-07T05:12:36.627Z,1.14
2019-02-07T05:13:36.617Z,1.18
2019-02-07T05:14:36.628Z,1.24
2019-02-07T05:15:36.610Z,1.26
2019-02-07T05:16:39.674Z,1.22
2019-02-07T05:17:36.561Z,1.29
2019-02-07T05:18:36.551Z,1.39
2019-02-07T05:19:36.602Z,1.36
2019-02-07T05:20:36.559Z,1.33
2019-02-07T05:21:36.552Z,1.40
2019-02-07T05:22:36.494Z,1.42
2019-02-07T05:23:36.486Z,1.37
2019-02-07T05:24:36.514Z,1.34
2019-02-07T05:25:36.479Z,1.29
2019-02-07T05:26:36.445Z,1.33
2019-02-07T05:27:36.501Z,1.24
2019-02-07T05:28:36.431Z,1.22
2019-02-07T05:29:36.429Z,1.26
2019-02-07T05:30:36.421Z,1.25
2019-02-07T05:31:36.438Z,1.22
2019-02-07T05:32:36.568Z,1.19
2019-02-07T05:33:36.376Z,1.29
2019-02-07T05:34:36.371Z,1.19
2019-02-07T05:35:36.367Z,1.24
2019-02-07T05:36:36.316Z,1.29
2019-02-07T05:37:36.291Z,1.33
2019-02-07T05:38:36.315Z,1.28
2019-02-07T05:39:36.297Z,1.37
2019-02-07T05:40:36.280Z,1.36
2019-02-07T05:41:36.286Z,1.40
2019-02-07T05:42:36.256Z,1.33
2019-02-07T05:43:36.298Z,1.33
2019-02-07T05:44:36.234Z,1.29
2019-02-07T05:45:36.221Z,1.26
2019-02-07T05:46:36.243Z,1.28
2019-02-07T05:47:36.175Z,1.33
2019-02-07T05:48:36.189Z,1.34
2019-02-07T05:49:36.302Z,1.37
2019-02-07T05:50:36.156Z,1.36
2019-02-07T05:51:36.161Z,1.43
2019-02-07T05:52:36.104Z,1.52
2019-02-07T05:53:36.110Z,1.51
2019-02-07T05:54:36.110Z,1.52
2019-02-07T05:55:36.111Z,1.57
2019-02-07T05:56:36.097Z,1.52
2019-02-07T05:57:36.083Z,1.46
2019-02-07T05:58:36.037Z,1.40
2019-02-07T05:59:36.023Z,1.42
2019-02-07T06:00:36.031Z,1.42
2019-02-07T06:01:36.140Z,1.43
2019-02-07T06:02:36.035Z,1.46
2019-02-07T06:03:35.972Z,1.43
2019-02-07T06:04:35.956Z,1.42
2019-02-07T06:05:36.168Z,1.43
2019-02-07T06:06:35.957Z,1.47
2019-02-07T06:07:35.910Z,1.42
2019-02-07T06:08:35.896Z,1.44
2019-02-07T06:09:35.878Z,1.60
2019-02-07T06:10:35.875Z,1.61
2019-02-07T06:11:35.859Z,1.51
2019-02-07T06:12:35.862Z,1.57
2019-02-07T06:13:35.825Z,1.51
2019-02-07T06:14:35.835Z,1.51
2019-02-07T06:15:35.803Z,1.52
2019-02-07T06:16:35.868Z,1.44
2019-02-07T06:17:35.778Z,1.47
2019-02-07T06:18:35.788Z,1.39
2019-02-07T06:19:35.774Z,1.39
2019-02-07T06:20:35.731Z,1.43
2019-02-07T06:21:35.755Z,1.47
2019-02-07T06:22:35.789Z,1.37
2019-02-07T06:23:35.723Z,1.44
2019-02-07T06:24:35.713Z,1.44
2019-02-07T06:25:35.673Z,1.52
2019-02-07T06:26:35.697Z,1.47
2019-02-07T06:27:35.682Z,1.43
2019-02-07T06:28:35.649Z,1.42
2019-02-07T06:29:35.679Z,1.43
2019-02-07T06:30:35.610Z,1.44
2019-02-07T06:31:35.628Z,1.40
2019-02-07T06:32:35.594Z,1.50
2019-02-07T06:33:35.635Z,1.43
2019-02-07T06:34:35.565Z,1.42
2019-02-07T06:35:35.547Z,1.43
2019-02-07T06:36:35.557Z,1.50
2019-02-07T06:37:35.550Z,1.50
2019-02-07T06:38:35.577Z,1.44
2019-02-07T06:39:35.514Z,1.54
2019-02-07T06:40:35.487Z,1.44
2019-02-07T06:41:35.487Z,1.51
2019-02-07T06:42:35.492Z,1.52
2019-02-07T06:43:35.477Z,1.42
2019-02-07T06:44:35.420Z,1.43
2019-02-07T06:45:35.417Z,1.42
2019-02-07T06:46:35.434Z,1.43
2019-02-07T06:47:35.436Z,1.43
2019-02-07T06:48:35.469Z,1.43
2019-02-07T06:49:35.476Z,1.43
2019-02-07T06:50:35.360Z,1.37
2019-02-07T06:51:35.490Z,1.36
2019-02-07T06:52:35.383Z,1.44
2019-02-07T06:53:35.303Z,1.44
2019-02-07T06:54:35.296Z,1.52
2019-02-07T06:55:35.307Z,1.44
2019-02-07T06:56:35.295Z,1.42
2019-02-07T06:57:35.278Z,1.46
2019-02-07T06:58:35.284Z,1.55
2019-02-07T06:59:35.227Z,1.52
2019-02-07T07:00:35.235Z,1.51
2019-02-07T07:01:35.216Z,1.43
2019-02-07T07:02:35.212Z,1.40
2019-02-07T07:03:35.214Z,1.43
2019-02-07T07:04:35.177Z,1.44
2019-02-07T07:05:35.273Z,1.44
2019-02-07T07:06:35.192Z,1.44
2019-02-07T07:07:35.156Z,1.47
2019-02-07T07:08:35.119Z,1.55
2019-02-07T07:09:35.109Z,1.58
2019-02-07T07:10:35.081Z,1.52
2019-02-07T07:11:35.094Z,1.57
2019-02-07T07:12:35.067Z,1.47
2019-02-07T07:13:35.094Z,1.47
2019-02-07T07:14:35.045Z,1.52
2019-02-07T07:15:35.038Z,1.50
2019-02-07T07:16:35.054Z,1.64
2019-02-07T07:17:35.028Z,1.65
2019-02-07T07:18:35.044Z,1.61
2019-02-07T07:19:35.049Z,1.65
2019-02-07T07:20:34.983Z,1.69
2019-02-07T07:21:34.948Z,1.68
2019-02-07T07:22:34.948Z,1.75
2019-02-07T07:23:34.920Z,1.72
2019-02-07T07:24:34.901Z,1.78
2019-02-07T07:25:34.913Z,1.75
2019-02-07T07:26:34.886Z,1.78
2019-02-07T07:27:34.904Z,1.80
2019-02-07T07:28:34.906Z,1.76
2019-02-07T07:29:34.967Z,1.76
2019-02-07T07:30:34.855Z,1.79
2019-02-07T07:31:34.856Z,1.83
2019-02-07T07:32:34.822Z,1.85
2019-02-07T07:33:34.817Z,1.83
2019-02-07T07:34:34.784Z,1.85
2019-02-07T07:35:34.768Z,1.89
2019-02-07T07:36:34.769Z,1.83
2019-02-07T07:37:34.760Z,1.89
2019-02-07T07:38:34.722Z,1.90
2019-02-07T07:39:34.716Z,1.85
2019-02-07T07:40:34.715Z,1.90
2019-02-07T07:41:34.700Z,1.82
2019-02-07T07:42:34.744Z,1.85
2019-02-07T07:43:34.688Z,1.89
2019-02-07T07:44:34.690Z,1.89
2019-02-07T07:45:34.643Z,1.93
2019-02-07T07:46:34.662Z,1.98
2019-02-07T07:47:36.256Z,1.97
2019-02-07T07:48:34.649Z,1.83
2019-02-07T07:49:34.599Z,1.90
2019-02-07T07:50:34.572Z,1.89
2019-02-07T07:51:34.608Z,1.94
2019-02-07T07:52:34.587Z,1.90
2019-02-07T07:53:34.596Z,1.94
2019-02-07T07:54:34.570Z,1.87
2019-02-07T07:55:34.540Z,1.94
2019-02-07T07:56:34.510Z,1.91
2019-02-07T07:57:34.513Z,1.93
2019-02-07T07:58:34.522Z,1.94
2019-02-07T07:59:34.502Z,1.94
2019-02-07T08:00:34.492Z,1.94
2019-02-07T08:01:34.439Z,2.01
2019-02-07T08:02:34.424Z,2.02
2019-02-07T08:03:34.452Z,1.99
2019-02-07T08:04:34.457Z,2.02
2019-02-07T08:05:34.465Z,2.08
2019-02-07T08:06:34.482Z,2.06
2019-02-07T08:07:34.383Z,1.97
2019-02-07T08:08:34.375Z,1.85
2019-02-07T08:09:34.333Z,1.94
2019-02-07T08:10:34.334Z,1.87
2019-02-07T08:11:34.322Z,1.85
2019-02-07T08:12:34.341Z,1.87
2019-02-07T08:13:34.313Z,1.89
2019-02-07T08:14:34.314Z,1.72
2019-02-07T08:15:34.307Z,1.76
2019-02-07T08:16:34.289Z,1.85
2019-02-07T08:17:34.235Z,1.80
2019-02-07T08:18:34.253Z,1.83
2019-02-07T08:19:34.203Z,1.89
2019-02-07T08:20:34.212Z,1.71
2019-02-07T08:21:34.206Z,1.60
2019-02-07T08:22:34.175Z,1.68
2019-02-07T08:23:34.181Z,1.65
2019-02-07T08:24:34.173Z,1.68
2019-02-07T08:25:34.132Z,1.61
2019-02-07T08:26:34.142Z,1.64
2019-02-07T08:27:34.095Z,1.65
2019-02-07T08:28:34.097Z,1.62
2019-02-07T08:29:34.097Z,1.64
2019-02-07T08:30:36.439Z,1.69
2019-02-07T08:31:34.053Z,1.54
2019-02-07T08:32:34.080Z,1.58
2019-02-07T08:33:34.071Z,1.60
2019-02-07T08:34:34.033Z,1.62
2019-02-07T08:35:34.088Z,1.62
2019-02-07T08:36:34.046Z,1.69
2019-02-07T08:37:34.022Z,1.75
2019-02-07T08:38:34.016Z,1.76
2019-02-07T08:39:33.966Z,1.87
2019-02-07T08:40:33.938Z,1.80
2019-02-07T08:41:33.951Z,1.85
2019-02-07T08:42:33.915Z,1.85
2019-02-07T08:43:33.920Z,1.89
2019-02-07T08:44:33.912Z,1.89
2019-02-07T08:45:33.901Z,1.89
2019-02-07T08:46:33.930Z,1.85
2019-02-07T08:47:33.950Z,1.85
2019-02-07T08:48:33.833Z,2.02
2019-02-07T08:49:33.840Z,1.94
2019-02-07T08:50:33.804Z,1.99
2019-02-07T08:51:33.815Z,1.91
2019-02-07T08:52:33.778Z,1.91
2019-02-07T08:53:33.808Z,1.94
2019-02-07T08:54:33.794Z,1.97
2019-02-07T08:55:35.099Z,2.10
2019-02-07T08:56:33.744Z,2.13
2019-02-07T08:57:33.713Z,2.13
2019-02-07T08:58:33.725Z,2.15
2019-02-07T08:59:33.702Z,2.12
2019-02-07T09:00:33.671Z,2.15
2019-02-07T09:01:33.735Z,2.16
2019-02-07T09:02:33.673Z,2.16
2019-02-07T09:03:33.636Z,2.23
2019-02-07T09:04:33.652Z,2.27
2019-02-07T09:05:33.660Z,2.22
2019-02-07T09:06:33.637Z,2.33
2019-02-07T09:07:33.588Z,2.40
2019-02-07T09:08:33.579Z,2.27
2019-02-07T09:09:33.589Z,2.26
2019-02-07T09:10:33.602Z,2.27
2019-02-07T09:11:33.625Z,2.26
2019-02-07T09:12:33.566Z,2.22
2019-02-07T09:13:33.515Z,2.30
2019-02-07T09:14:33.513Z,2.26
2019-02-07T09:15:33.509Z,2.27
2019-02-07T09:16:33.505Z,2.35
2019-02-07T09:17:33.466Z,2.23
2019-02-07T09:18:33.506Z,2.26
2019-02-07T09:19:33.436Z,2.19
2019-02-07T09:20:33.490Z,2.20
2019-02-07T09:21:33.466Z,2.28
2019-02-07T09:22:33.409Z,2.28
2019-02-07T09:23:33.441Z,2.20
2019-02-07T09:24:33.379Z,2.28
2019-02-07T09:25:34.524Z,2.38
2019-02-07T09:26:33.398Z,2.30
2019-02-07T09:27:33.369Z,2.26
2019-02-07T09:28:33.339Z,2.28
2019-02-07T09:29:33.388Z,2.34
2019-02-07T09:30:33.319Z,2.28
2019-02-07T09:31:33.286Z,2.26
2019-02-07T09:32:33.311Z,2.23
2019-02-07T09:33:33.295Z,2.20
2019-02-07T09:34:33.261Z,2.26
2019-02-07T09:35:33.254Z,2.26
2019-02-07T09:36:33.316Z,2.28
2019-02-07T09:37:33.255Z,2.28
2019-02-07T09:38:33.201Z,2.38
2019-02-07T09:39:33.188Z,2.40
2019-02-07T09:40:33.178Z,2.40
2019-02-07T09:41:33.178Z,2.35
2019-02-07T09:42:33.230Z,2.38
2019-02-07T09:43:42.003Z,2.38
2019-02-07T09:45:38.177Z,2.41
2019-02-07T09:46:37.688Z,2.38
2019-02-07T09:47:37.619Z,2.49
2019-02-07T09:48:37.622Z,2.49
2019-02-07T09:49:37.577Z,2.52
2019-02-07T09:50:37.557Z,2.58
2019-02-07T09:51:37.544Z,2.63
2019-02-07T09:52:37.543Z,2.67
2019-02-07T09:53:37.530Z,2.63
2019-02-07T09:54:37.499Z,2.67
2019-02-07T09:55:37.501Z,2.66
2019-02-07T09:56:37.474Z,2.66
2019-02-07T09:57:37.478Z,2.58
2019-02-07T09:58:37.476Z,2.59
2019-02-07T09:59:37.492Z,2.58
2019-02-07T10:00:37.415Z,2.66
2019-02-07T10:01:37.407Z,2.84
2019-02-07T10:02:37.411Z,2.76
2019-02-07T10:03:37.419Z,2.76
2019-02-07T10:04:37.380Z,2.81
2019-02-07T10:05:37.350Z,2.77
2019-02-07T10:06:37.342Z,2.79
2019-02-07T10:07:37.396Z,2.92
2019-02-07T10:08:37.343Z,2.87
2019-02-07T10:09:37.334Z,2.88
2019-02-07T10:10:37.299Z,2.88
2019-02-07T10:11:37.288Z,2.88
2019-02-07T10:12:37.268Z,2.87
2019-02-07T10:13:37.270Z,2.81
2019-02-07T10:14:37.308Z,2.89
2019-02-07T10:15:37.238Z,2.97
2019-02-07T10:16:37.293Z,3.02
2019-02-07T10:17:37.215Z,3.07
2019-02-07T10:18:37.208Z,3.15
2019-02-07T10:19:37.222Z,3.21
2019-02-07T10:20:37.518Z,3.02
2019-02-07T10:21:37.159Z,3.05
2019-02-07T10:22:37.154Z,3.13
2019-02-07T10:23:37.162Z,3.20
2019-02-07T10:24:37.157Z,3.28
2019-02-07T10:25:37.166Z,3.42
2019-02-07T10:26:37.122Z,3.46
2019-02-07T10:27:37.084Z,3.43
2019-02-07T10:28:37.086Z,3.52
2019-02-07T10:29:37.079Z,3.53
2019-02-07T10:30:37.118Z,3.58
2019-02-07T10:31:37.061Z,3.60
2019-02-07T10:32:37.040Z,3.61
2019-02-07T10:33:37.027Z,3.64
2019-02-07T10:34:37.031Z,3.61
2019-02-07T10:35:37.032Z,3.60
2019-02-07T10:36:37.025Z,3.70
2019-02-07T10:37:37.020Z,3.64
2019-02-07T10:38:36.969Z,3.67
2019-02-07T10:39:37.004Z,3.64
2019-02-07T10:40:36.933Z,3.67
2019-02-07T10:41:36.978Z,3.58
2019-02-07T10:42:36.942Z,3.61
2019-02-07T10:43:36.969Z,3.70
2019-02-07T10:44:46.306Z,3.62
2019-02-07T10:46:43.349Z,3.68
2019-02-07T10:47:50.431Z,3.65
2019-02-07T10:49:35.173Z,3.67
2019-02-07T10:50:35.425Z,3.78
2019-02-07T10:51:35.021Z,3.85
2019-02-07T10:52:34.885Z,3.82
2019-02-07T10:53:34.912Z,3.92
2019-02-07T10:54:34.895Z,3.96
2019-02-07T10:55:34.872Z,3.98
2019-02-07T10:56:34.947Z,4.12
2019-02-07T10:57:34.879Z,4.14
2019-02-07T10:58:34.814Z,4.15
2019-02-07T10:59:34.841Z,4.19
2019-02-07T11:00:34.806Z,4.12
2019-02-07T11:01:34.799Z,4.15
2019-02-07T11:02:34.767Z,4.15
2019-02-07T11:03:34.758Z,4.10
2019-02-07T11:04:34.802Z,4.18
2019-02-07T11:05:34.742Z,4.16
2019-02-07T11:06:34.739Z,4.10
2019-02-07T11:07:34.748Z,4.15
2019-02-07T11:08:34.719Z,4.19
2019-02-07T11:09:34.704Z,4.10
2019-02-07T11:10:34.704Z,4.14
2019-02-07T11:11:34.697Z,4.19
2019-02-07T11:12:34.662Z,4.19
2019-02-07T11:13:34.680Z,4.18
2019-02-07T11:14:34.709Z,4.28
2019-02-07T11:15:34.697Z,4.34
2019-02-07T11:16:34.614Z,4.32
2019-02-07T11:17:34.619Z,4.37
2019-02-07T11:18:34.703Z,4.44
2019-02-07T11:19:34.601Z,4.50
2019-02-07T11:20:34.609Z,4.47
2019-02-07T11:21:34.585Z,4.52
2019-02-07T11:22:34.536Z,4.52
2019-02-07T11:23:34.561Z,4.50
2019-02-07T11:24:34.525Z,4.39
2019-02-07T11:25:34.541Z,4.39
2019-02-07T11:26:34.522Z,4.43
2019-02-07T11:27:34.509Z,4.50
2019-02-07T11:28:34.487Z,4.50
2019-02-07T11:29:34.487Z,4.54
2019-02-07T11:30:34.453Z,4.50
2019-02-07T11:31:34.436Z,4.52
2019-02-07T11:32:34.435Z,4.57
2019-02-07T11:33:34.486Z,4.62
2019-02-07T11:34:34.404Z,4.58
2019-02-07T11:35:34.400Z,4.52
2019-02-07T11:36:34.412Z,4.55
2019-02-07T11:37:34.396Z,4.57
2019-02-07T11:38:34.384Z,4.55
2019-02-07T11:39:34.381Z,4.58
2019-02-07T11:40:34.338Z,4.54
2019-02-07T11:41:34.361Z,4.59
2019-02-07T11:42:34.311Z,4.58
2019-02-07T11:43:34.385Z,4.72
2019-02-07T11:44:34.292Z,4.72
2019-02-07T11:45:34.387Z,4.64
2019-02-07T11:46:37.305Z,4.72
2019-02-07T11:47:34.351Z,4.80
2019-02-07T11:48:34.269Z,4.73
2019-02-07T11:49:34.262Z,4.73
2019-02-07T11:50:34.306Z,4.75
2019-02-07T11:51:34.379Z,4.73
2019-02-07T11:52:34.205Z,4.73
2019-02-07T11:53:34.190Z,4.65
2019-02-07T11:54:34.254Z,4.64
2019-02-07T11:55:34.232Z,4.65
2019-02-07T11:56:34.236Z,4.67
2019-02-07T11:57:34.201Z,4.67
2019-02-07T11:58:34.162Z,4.70
2019-02-07T11:59:34.147Z,4.72
2019-02-07T12:00:34.121Z,4.69
2019-02-07T12:01:34.138Z,4.64
2019-02-07T12:02:34.142Z,4.70
2019-02-07T12:03:34.144Z,4.70
2019-02-07T12:04:34.078Z,4.70
2019-02-07T12:05:34.068Z,4.61
2019-02-07T12:06:34.110Z,4.57
2019-02-07T12:07:34.072Z,4.57
2019-02-07T12:08:34.049Z,4.72
2019-02-07T12:09:34.078Z,4.73
2019-02-07T12:10:34.008Z,4.67
2019-02-07T12:11:34.090Z,4.69
2019-02-07T12:12:34.012Z,4.70
2019-02-07T12:13:33.993Z,4.75
2019-02-07T12:14:34.007Z,4.72
2019-02-07T12:15:33.969Z,4.72
2019-02-07T12:16:33.978Z,4.73
2019-02-07T12:17:33.955Z,4.65
2019-02-07T12:18:33.958Z,4.70
2019-02-07T12:19:33.967Z,4.76
2019-02-07T12:20:33.896Z,4.76
2019-02-07T12:21:33.973Z,4.86
2019-02-07T12:22:33.883Z,4.84
2019-02-07T12:23:33.865Z,4.80
2019-02-07T12:24:33.876Z,4.72
2019-02-07T12:25:33.897Z,4.84
2019-02-07T12:26:33.890Z,4.84
2019-02-07T12:27:33.867Z,4.76
2019-02-07T12:28:36.079Z,4.88
2019-02-07T12:29:33.880Z,4.84
2019-02-07T12:30:33.815Z,4.83
2019-02-07T12:31:33.893Z,4.92
2019-02-07T12:32:33.796Z,4.99
2019-02-07T12:33:33.755Z,4.94
2019-02-07T12:34:33.811Z,4.96
2019-02-07T12:35:33.745Z,4.96
2019-02-07T12:36:33.738Z,5.01
2019-02-07T12:37:33.741Z,4.94
2019-02-07T12:38:33.685Z,4.91
2019-02-07T12:39:33.725Z,4.92
2019-02-07T12:40:33.693Z,5.14
2019-02-07T12:41:33.694Z,4.95
2019-02-07T12:42:33.741Z,5.16
2019-02-07T12:43:33.684Z,4.98
2019-02-07T12:44:33.678Z,5.01
2019-02-07T12:45:33.666Z,5.12
2019-02-07T12:46:33.783Z,5.10
2019-02-07T12:47:33.679Z,5.09
2019-02-07T12:48:33.621Z,5.13
2019-02-07T12:49:33.595Z,5.13
2019-02-07T12:50:33.591Z,5.16
2019-02-07T12:51:33.612Z,5.17
2019-02-07T12:52:33.574Z,5.14
2019-02-07T12:53:33.586Z,5.28
2019-02-07T12:54:33.564Z,5.27
2019-02-07T12:55:33.509Z,5.37
2019-02-07T12:56:33.543Z,5.41
2019-02-07T12:57:33.556Z,5.48
2019-02-07T12:58:33.519Z,5.46
2019-02-07T12:59:33.534Z,5.46
2019-02-07T13:00:33.487Z,5.52
2019-02-07T13:01:33.465Z,5.52
2019-02-07T13:02:33.496Z,5.67
2019-02-07T13:03:33.442Z,5.63
2019-02-07T13:04:33.466Z,5.67
2019-02-07T13:05:33.451Z,5.73
2019-02-07T13:06:33.406Z,5.73
2019-02-07T13:07:33.401Z,5.63
2019-02-07T13:08:33.406Z,5.64
2019-02-07T13:09:33.394Z,5.71
2019-02-07T13:10:33.349Z,5.55
2019-02-07T13:11:33.364Z,5.71
2019-02-07T13:12:33.370Z,5.67
2019-02-07T13:13:33.315Z,5.71
2019-02-07T13:14:33.343Z,5.70
2019-02-07T13:15:33.343Z,5.71
2019-02-07T13:16:33.371Z,5.64
2019-02-07T13:17:33.290Z,5.68
2019-02-07T13:18:33.309Z,5.66
2019-02-07T13:19:40.267Z,5.70
2019-02-07T13:20:33.418Z,5.70
2019-02-07T13:21:33.234Z,5.67
2019-02-07T13:22:33.229Z,5.73
2019-02-07T13:23:33.234Z,5.68
2019-02-07T13:24:33.218Z,5.78
2019-02-07T13:25:33.211Z,5.71
2019-02-07T13:26:33.287Z,5.70
2019-02-07T13:27:33.203Z,5.68
2019-02-07T13:28:33.250Z,5.64
2019-02-07T13:29:33.266Z,5.74
2019-02-07T13:30:33.174Z,5.71
2019-02-07T13:31:33.134Z,5.71
2019-02-07T13:32:33.164Z,5.77
2019-02-07T13:33:33.167Z,5.78
2019-02-07T13:34:33.125Z,5.71